1929 NOT_NAMED (1929115N08130)


IBTrACS version v04r00. Visit IBTrACS website for data access.
Please direct all questions to the IBTrACS Q and A forum

Storm track - Intensity - Wind Radii - Intensity Data - Source Data - All data

Summary Information

Storm ID 1929115N08130
Start Apr 24 22Z
End Apr 28 22Z
ATCF IDs
Track status Best track data.

Storm track plot

Map of storm track

Intensity plots

No Intensity information for this storm


Radial wind information

No radial wind information for this storm


Position and Intensity Table

BASIN ISO_TIME_________ NATURE LAT LON
degrees north degrees east
WP 1929-04-24 22:00:00 NR 8.30 130.20
WP 1929-04-25 00:00:00 NR 8.46 129.89
WP 03:00:00 NR 8.70 129.42
WP 06:00:00 NR 8.95 128.97
WP 09:00:00 NR 9.21 128.54
WP 10:00:00 NR 9.30 128.40
WP 12:00:00 NR 9.49 128.13
WP 15:00:00 NR 9.78 127.76
WP 18:00:00 NR 10.11 127.41
WP 21:00:00 NR 10.47 127.10
WP 22:00:00 NR 10.60 127.00
WP 1929-04-26 00:00:00 NR 10.86 126.80
WP 03:00:00 NR 11.29 126.52
WP 06:00:00 NR 11.75 126.28
WP 09:00:00 NR 12.23 126.06
WP 10:00:00 NR 12.40 126.00
WP 12:00:00 NR 12.74 125.85
WP 15:00:00 NR 13.26 125.65
WP 18:00:00 NR 13.79 125.50
WP 21:00:00 NR 14.32 125.41
WP 22:00:00 NR 14.50 125.40
WP 1929-04-27 00:00:00 NR 14.85 125.39
WP 03:00:00 NR 15.37 125.44
WP 06:00:00 NR 15.87 125.56
WP 09:00:00 NR 16.35 125.73
WP 10:00:00 NR 16.50 125.80
WP 12:00:00 NR 16.80 125.93
WP 15:00:00 NR 17.22 126.18
WP 18:00:00 NR 17.61 126.46
WP 21:00:00 NR 17.98 126.79
WP 22:00:00 NR 18.10 126.90
WP 1929-04-28 00:00:00 NR 18.34 127.12
WP 03:00:00 NR 18.69 127.47
WP 06:00:00 NR 19.01 127.85
WP 09:00:00 NR 19.31 128.26
WP 10:00:00 NR 19.40 128.40
WP 12:00:00 NR 19.58 128.69
WP 15:00:00 NR 19.84 129.13
WP 18:00:00 NR 20.09 129.58
WP 21:00:00 NR 20.32 130.05
WP 22:00:00 NR 20.40 130.20

Source Information

Agency Information
USA
TOKYO
CMA
HKO
NEWDELHI
REUNION
BOM
NADI
WELLINGTON
DS824
TD9636 cons_worldwide_trop_cyclone_18710101-19891231-003:Line=8268
TD9635
NEUMANN
MLC

All available IBTrACS Data

SEASON BASIN SUBBASIN ISO_TIME_________ NATURE LAT LON DIST2LAND LANDFALL IFLAG USA SSHS TD9636 LAT TD9636 LON TD9636 STAGE STORM SPEED STORM DIR
Year degrees north degrees east km km 1 degrees north degrees east kts degrees
1929 WP MM 1929-04-24 22:00:00 NR 8.30 130.20 402 372 __________O___ -1 8.30 130.20 4 10 297
1929 WP MM 1929-04-25 00:00:00 NR 8.46 129.89 374 328 __________P___ -1 8.46 129.89 4 10 298
1929 WP MM 03:00:00 NR 8.70 129.42 328 293 __________P___ -1 8.70 129.42 4 10 298
1929 WP MM 06:00:00 NR 8.95 128.97 293 245 __________P___ -1 8.95 128.97 4 10 300
1929 WP MM 09:00:00 NR 9.21 128.54 245 237 __________P___ -1 9.21 128.54 4 10 302
1929 WP MM 10:00:00 NR 9.30 128.40 237 211 __________O___ -1 9.30 128.40 4 10 305
1929 WP MM 12:00:00 NR 9.49 128.13 211 184 __________P___ -1 9.49 128.13 4 10 307
1929 WP MM 15:00:00 NR 9.78 127.76 188 165 __________P___ -1 9.78 127.76 4 9 311
1929 WP MM 18:00:00 NR 10.11 127.41 165 152 __________P___ -1 10.11 127.41 4 9 317
1929 WP MM 21:00:00 NR 10.47 127.10 152 138 __________P___ -1 10.47 127.10 4 10 320
1929 WP MM 22:00:00 NR 10.60 127.00 138 109 __________O___ -1 10.60 127.00 4 10 323
1929 WP MM 1929-04-26 00:00:00 NR 10.86 126.80 109 83 __________P___ -1 10.86 126.80 4 10 326
1929 WP MM 03:00:00 NR 11.29 126.52 83 79 __________P___ -1 11.29 126.52 4 10 330
1929 WP MM 06:00:00 NR 11.75 126.28 83 65 __________P___ -1 11.75 126.28 4 11 334
1929 WP MM 09:00:00 NR 12.23 126.06 65 55 __________P___ -1 12.23 126.06 4 11 337
1929 WP MM 10:00:00 NR 12.40 126.00 58 54 __________O___ -1 12.40 126.00 4 11 337
1929 WP MM 12:00:00 NR 12.74 125.85 70 70 __________P___ -1 12.74 125.85 4 11 338
1929 WP MM 15:00:00 NR 13.26 125.65 104 99 __________P___ -1 13.26 125.65 4 11 342
1929 WP MM 18:00:00 NR 13.79 125.50 118 110 __________P___ -1 13.79 125.50 4 11 348
1929 WP MM 21:00:00 NR 14.32 125.41 116 121 __________P___ -1 14.32 125.41 4 11 352
1929 WP MM 22:00:00 NR 14.50 125.40 127 127 __________O___ -1 14.50 125.40 4 11 359
1929 WP MM 1929-04-27 00:00:00 NR 14.85 125.39 147 155 __________P___ -1 14.85 125.39 4 10 3
1929 WP MM 03:00:00 NR 15.37 125.44 196 196 __________P___ -1 15.37 125.44 4 10 9
1929 WP MM 06:00:00 NR 15.87 125.56 254 254 __________P___ -1 15.87 125.56 4 10 16
1929 WP MM 09:00:00 NR 16.35 125.73 298 307 __________P___ -1 16.35 125.73 4 10 20
1929 WP MM 10:00:00 NR 16.50 125.80 322 322 __________O___ -1 16.50 125.80 4 10 23
1929 WP MM 12:00:00 NR 16.80 125.93 357 357 __________P___ -1 16.80 125.93 4 10 27
1929 WP MM 15:00:00 NR 17.22 126.18 393 393 __________P___ -1 17.22 126.18 4 10 32
1929 WP MM 18:00:00 NR 17.61 126.46 430 430 __________P___ -1 17.61 126.46 4 10 37
1929 WP MM 21:00:00 NR 17.98 126.79 469 469 __________P___ -1 17.98 126.79 4 10 40
1929 WP MM 22:00:00 NR 18.10 126.90 482 482 __________O___ -1 18.10 126.90 7 10 41
1929 WP MM 1929-04-28 00:00:00 NR 18.34 127.12 506 506 __________P___ -1 18.34 127.12 7 10 43
1929 WP MM 03:00:00 NR 18.69 127.47 549 549 __________P___ -1 18.69 127.47 7 10 46
1929 WP MM 06:00:00 NR 19.01 127.85 593 593 __________P___ -1 19.01 127.85 7 10 50
1929 WP MM 09:00:00 NR 19.31 128.26 639 639 __________P___ -1 19.31 128.26 7 10 53
1929 WP MM 10:00:00 NR 19.40 128.40 651 651 __________O___ -1 19.40 128.40 7 10 55
1929 WP MM 12:00:00 NR 19.58 128.69 686 686 __________P___ -1 19.58 128.69 7 10 57
1929 WP MM 15:00:00 NR 19.84 129.13 731 743 __________P___ -1 19.84 129.13 7 10 59
1929 WP MM 18:00:00 NR 20.09 129.58 789 789 __________P___ -1 20.09 129.58 7 10 61
1929 WP MM 21:00:00 NR 20.32 130.05 835 845 __________P___ -1 20.32 130.05 7 10 61
1929 WP MM 22:00:00 NR 20.40 130.20 858 __________O___ -1 20.40 130.20 7 10 61